^^
Grace C. Lehan Memorial Weather Station Historical Data
Daily Summary for September 21, 2022 Units:  English    Metric   Both
Daily Weekly Monthly Yearly
  High: Low: Average:
Temperature: 76.4 °F 58.4 °F 64.6 °F
Dew Point: 64 °F 55.6 °F 58.7 °F
Humidity: 92% 62.8% 82%
Wind Speed: 1.8mph 0mph 0.2mph
Wind Gust: 9mph - -
Wind- - WNW
Pressure: 29.94 in 29.79 in -
Precipitation: 0.00 in    
 
 
Tabular Data for September 21, 2022
Time Temperature Dew Point Pressure Wind Wind Speed Wind Gust Humidity Rainfall Rate (Hourly) solar
00:00 63.4 °F 60.4 °F 29.88 in Calm   4 mph 90% 0.00 in 0 W/m2
00:09 63.2 °F 60.2 °F 29.88 in Calm   1 mph 90% 0.00 in 0 W/m2
00:14 63.1 °F 60.1 °F 29.88 in WNW 0.3 mph 3 mph 90% 0.00 in 0 W/m2
00:19 63 °F 60 °F 29.88 in WNW 1 mph 6 mph 90% 0.00 in 0 W/m2
00:24 62.9 °F 59.9 °F 29.88 in WNW 0.2 mph 6 mph 90% 0.00 in 0 W/m2
00:29 62.7 °F 59.7 °F 29.88 in WNW 0.3 mph 6 mph 90% 0.00 in 0 W/m2
00:34 62.6 °F 59.8 °F 29.88 in WNW 0.3 mph 6 mph 90.7% 0.00 in 0 W/m2
00:39 62.5 °F 59.6 °F 29.88 in NW 0.3 mph 5 mph 90.1% 0.00 in 0 W/m2
00:44 62.5 °F 59.5 °F 29.88 in NW 0.5 mph 5 mph 90% 0.00 in 0 W/m2
00:49 62.4 °F 59.4 °F 29.88 in NW 0.2 mph 5 mph 90% 0.00 in 0 W/m2
00:54 62.3 °F 59.5 °F 29.88 in WNW 0.3 mph 5 mph 90.7% 0.00 in 0 W/m2
00:59 62.2 °F 59.5 °F 29.88 in Calm   5 mph 91% 0.00 in 0 W/m2
01:04 62.2 °F 59.5 °F 29.88 in NW 0.5 mph 5 mph 91% 0.00 in 0 W/m2
01:09 62.2 °F 59.5 °F 29.88 in WNW 0.1 mph 5 mph 91% 0.00 in 0 W/m2
01:14 62.1 °F 59.5 °F 29.88 in WNW 0.3 mph 5 mph 91% 0.00 in 0 W/m2
01:19 62.1 °F 59.5 °F 29.88 in Calm   5 mph 91% 0.00 in 0 W/m2
01:24 62.1 °F 59.5 °F 29.88 in NW 0.7 mph 6 mph 91% 0.00 in 0 W/m2
01:25 62.1 °F 59.5 °F 29.88 in Calm   6 mph 91% 0.00 in 0 W/m2
01:30 62 °F 59.4 °F 29.88 in Calm   6 mph 91% 0.00 in 0 W/m2
02:30 61.2 °F 58.6 °F 29.89 in Calm   3 mph 91% 0.00 in 0 W/m2
03:00 60.9 °F 58.3 °F 29.89 in Calm     91% 0.00 in 0 W/m2
03:30 61.3 °F 59 °F 29.89 in Calm   2 mph 92% 0.00 in 0 W/m2
04:04 60.9 °F 58.3 °F 29.89 in NW 0.9 mph 4 mph 91% 0.00 in 0 W/m2
04:09 60.9 °F 58.3 °F 29.89 in Calm   4 mph 91% 0.00 in 0 W/m2
04:14 60.8 °F 58.2 °F 29.89 in Calm   4 mph 91% 0.00 in 0 W/m2
04:19 60.7 °F 58.1 °F 29.89 in Calm   4 mph 91% 0.00 in 0 W/m2
04:24 60.6 °F 58 °F 29.89 in Calm   4 mph 91% 0.00 in 0 W/m2
04:29 60.5 °F 57.9 °F 29.89 in Calm   4 mph 91% 0.00 in 0 W/m2
04:34 60.4 °F 57.8 °F 29.89 in Calm   4 mph 91% 0.00 in 0 W/m2
04:39 60.4 °F 57.8 °F 29.89 in NW 0.1 mph 3 mph 91% 0.00 in 0 W/m2
04:44 60.3 °F 57.4 °F 29.89 in Calm   3 mph 90.1% 0.00 in 0 W/m2
04:49 60.2 °F 57.3 °F 29.89 in NW 0.2 mph 4 mph 90% 0.00 in 0 W/m2
04:54 60.2 °F 57.3 °F 29.89 in Calm   4 mph 90% 0.00 in 0 W/m2
04:59 60.2 °F 57.3 °F 29.89 in Calm   4 mph 90% 0.00 in 0 W/m2
05:04 60.1 °F 57.2 °F 29.89 in Calm   4 mph 90% 0.00 in 0 W/m2
05:09 60.1 °F 56.9 °F 29.89 in Calm   1 mph 89.1% 0.00 in 0 W/m2
05:14 60.1 °F 56.9 °F 29.90 in NW 0.1 mph 3 mph 89% 0.00 in 0 W/m2
05:19 60.2 °F 57 °F 29.90 in Calm   3 mph 89% 0.00 in 0 W/m2
05:24 60.2 °F 57 °F 29.90 in Calm   3 mph 89% 0.00 in 0 W/m2
05:29 60.2 °F 57 °F 29.90 in Calm   3 mph 89% 0.00 in 0 W/m2
05:34 60.2 °F 56.8 °F 29.90 in NW 0.1 mph 3 mph 88.3% 0.00 in 0 W/m2
05:39 60.3 °F 56.7 °F 29.90 in Calm   2 mph 88% 0.00 in 0 W/m2
05:44 60.4 °F 56.8 °F 29.90 in Calm   2 mph 88% 0.00 in 0 W/m2
05:49 60.4 °F 56.8 °F 29.90 in Calm   2 mph 88% 0.00 in 0 W/m2
05:54 60.3 °F 56.7 °F 29.90 in Calm   2 mph 88% 0.00 in 0 W/m2
05:59 60.2 °F 56.6 °F 29.90 in Calm   2 mph 88% 0.00 in 0 W/m2
06:04 60.2 °F 56.6 °F 29.91 in Calm   2 mph 88% 0.00 in 0 W/m2
06:09 60.1 °F 56.5 °F 29.91 in Calm     88% 0.00 in 0 W/m2
06:14 59.9 °F 56.3 °F 29.90 in Calm     88% 0.00 in 0 W/m2
06:19 59.8 °F 56.2 °F 29.91 in Calm     88% 0.00 in 0 W/m2
06:24 59.6 °F 56 °F 29.91 in Calm     88% 0.00 in 0 W/m2
06:29 59.5 °F 56.1 °F 29.91 in Calm     88.4% 0.00 in 0 W/m2
06:34 59.3 °F 55.9 °F 29.91 in Calm     88.3% 0.00 in 0 W/m2
06:39 59.1 °F 55.7 °F 29.91 in Calm     88.5% 0.00 in 0 W/m2
06:44 59 °F 55.8 °F 29.91 in Calm     89% 0.00 in 5 W/m2
06:49 58.9 °F 55.7 °F 29.91 in Calm     89% 0.00 in 7 W/m2
06:54 58.7 °F 55.7 °F 29.92 in Calm     89.6% 0.00 in 9 W/m2
06:59 58.6 °F 55.7 °F 29.92 in Calm     90% 0.00 in 9 W/m2
07:04 58.5 °F 55.6 °F 29.92 in Calm     90% 0.00 in 11 W/m2
07:09 58.4 °F 55.6 °F 29.92 in Calm     90.2% 0.00 in 12 W/m2
07:14 58.4 °F 55.8 °F 29.92 in Calm     91% 0.00 in 12 W/m2
07:19 58.4 °F 55.8 °F 29.92 in Calm     91% 0.00 in 14 W/m2
07:24 58.4 °F 55.8 °F 29.92 in Calm     91% 0.00 in 16 W/m2
07:29 58.4 °F 56 °F 29.93 in Calm     91.7% 0.00 in 16 W/m2
07:34 58.5 °F 56.2 °F 29.93 in Calm     92% 0.00 in 18 W/m2
07:39 58.6 °F 56.3 °F 29.93 in Calm     92% 0.00 in 18 W/m2
07:44 58.6 °F 56.3 °F 29.93 in Calm   1 mph 92% 0.00 in 18 W/m2
07:49 58.7 °F 56.4 °F 29.93 in Calm   1 mph 92% 0.00 in 19 W/m2
07:54 58.8 °F 56.5 °F 29.93 in Calm   1 mph 92% 0.00 in 21 W/m2
07:59 58.9 °F 56.6 °F 29.92 in Calm   1 mph 92% 0.00 in 21 W/m2
08:04 59.1 °F 56.5 °F 29.92 in Calm     91% 0.00 in 23 W/m2
08:09 59.2 °F 56.6 °F 29.93 in Calm     91% 0.00 in 25 W/m2
08:14 59.4 °F 56.8 °F 29.93 in Calm     91% 0.00 in 26 W/m2
08:19 59.6 °F 56.9 °F 29.93 in Calm     90.9% 0.00 in 30 W/m2
08:24 59.7 °F 56.8 °F 29.93 in Calm     90% 0.00 in 33 W/m2
08:29 60 °F 57.1 °F 29.93 in Calm     89.9% 0.00 in 40 W/m2
08:34 60.2 °F 57 °F 29.93 in Calm     89% 0.00 in 46 W/m2
08:39 60.5 °F 57 °F 29.93 in Calm     88.4% 0.00 in 51 W/m2
08:44 60.8 °F 57 °F 29.93 in Calm     87.6% 0.00 in 60 W/m2
08:49 61.1 °F 57.2 °F 29.93 in Calm     87% 0.00 in 63 W/m2
08:54 61.4 °F 57.2 °F 29.93 in NW 0.1 mph 2 mph 86% 0.00 in 158 W/m2
08:59 62 °F 57.5 °F 29.93 in NW 0.8 mph 6 mph 85.4% 0.00 in 411 W/m2
09:04 62.7 °F 57.7 °F 29.93 in Calm   6 mph 83.4% 0.00 in 439 W/m2
09:09 63.7 °F 58.3 °F 29.93 in NW 0.7 mph 4 mph 82.6% 0.00 in 480 W/m2
09:14 64.8 °F 58.6 °F 29.94 in North 1.2 mph 6 mph 80.4% 0.00 in 524 W/m2
09:19 66 °F 58.8 °F 29.94 in NW 1.8 mph 9 mph 77.4% 0.00 in 594 W/m2
09:24 67.2 °F 59 °F 29.93 in NW 0.5 mph 9 mph 75% 0.00 in 633 W/m2
09:29 68.3 °F 59.8 °F 29.93 in WNW 1.3 mph 9 mph 74.2% 0.00 in 679 W/m2
09:34 69.2 °F 60.1 °F 29.93 in WNW 0.3 mph 9 mph 72.7% 0.00 in 694 W/m2
09:39 70.1 °F 60.4 °F 29.94 in WNW 0.8 mph 5 mph 71.2% 0.00 in 401 W/m2
09:44 70.4 °F 59.6 °F 29.94 in WNW 0.4 mph 5 mph 68.6% 0.00 in 139 W/m2
09:49 69.9 °F 58.9 °F 29.94 in Calm   5 mph 68% 0.00 in 211 W/m2
09:54 69.4 °F 59.3 °F 29.94 in Calm   5 mph 70.2% 0.00 in 223 W/m2
09:59 68.9 °F 58.7 °F 29.93 in Calm   5 mph 70% 0.00 in 297 W/m2
10:04 68.6 °F 58.5 °F 29.93 in Calm   5 mph 70.4% 0.00 in 545 W/m2
10:09 68.5 °F 58.2 °F 29.93 in Calm   3 mph 69.8% 0.00 in 338 W/m2
10:14 68.4 °F 58.1 °F 29.93 in North 0.6 mph 4 mph 69.7% 0.00 in 220 W/m2
10:19 68.3 °F 58.3 °F 29.93 in NW 0.5 mph 4 mph 70.4% 0.00 in 213 W/m2
10:24 68.2 °F 58.6 °F 29.93 in WNW 0.9 mph 6 mph 71.4% 0.00 in 225 W/m2
10:29 67.9 °F 58.6 °F 29.93 in WNW 1.2 mph 6 mph 72.1% 0.00 in 272 W/m2
10:34 67.7 °F 58.5 °F 29.93 in WNW 0.1 mph 6 mph 72.3% 0.00 in 294 W/m2
10:39 67.6 °F 58.6 °F 29.93 in WNW 0.4 mph 4 mph 73.1% 0.00 in 287 W/m2
10:44 67.6 °F 58.6 °F 29.93 in WNW 0.1 mph 4 mph 73.1% 0.00 in 248 W/m2
10:49 67.7 °F 59.1 °F 29.93 in WNW 0.8 mph 7 mph 74% 0.00 in 246 W/m2
10:54 67.7 °F 58.8 °F 29.93 in West 1.1 mph 9 mph 73.3% 0.00 in 229 W/m2
13:19 71.9 °F 60.8 °F 29.86 in Calm   2 mph 67.9% 0.00 in 84 W/m2
13:24 72 °F 60.5 °F 29.86 in North 0.1 mph 2 mph 67.2% 0.00 in 91 W/m2
13:29 72.2 °F 61 °F 29.86 in Calm   2 mph 68% 0.00 in 81 W/m2
13:34 72.3 °F 60.9 °F 29.86 in NNW 0.2 mph 2 mph 67.4% 0.00 in 98 W/m2
13:39 72.5 °F 61.2 °F 29.85 in Calm   2 mph 67.7% 0.00 in 49 W/m2
13:44 72.6 °F 60.7 °F 29.85 in NNW 0.1 mph 2 mph 66.3% 0.00 in 60 W/m2
13:49 72.5 °F 60.5 °F 29.85 in Calm   2 mph 65.8% 0.00 in 72 W/m2
13:54 72.6 °F 61.3 °F 29.85 in Calm   2 mph 67.7% 0.00 in 113 W/m2
13:59 72.8 °F 61.2 °F 29.85 in Calm   2 mph 67% 0.00 in 114 W/m2
14:04 73 °F 61.9 °F 29.85 in NW 0.2 mph 4 mph 68.2% 0.00 in 125 W/m2
14:09 73.2 °F 61.5 °F 29.85 in WNW 0.2 mph 4 mph 66.7% 0.00 in 67 W/m2
14:14 73.4 °F 61.6 °F 29.84 in WNW 0.5 mph 4 mph 66.6% 0.00 in 62 W/m2
14:19 73.5 °F 61.6 °F 29.84 in WNW 0.2 mph 4 mph 66.2% 0.00 in 60 W/m2
14:24 73.7 °F 62.1 °F 29.84 in Calm   4 mph 66.9% 0.00 in 56 W/m2
14:29 74 °F 61.8 °F 29.84 in Calm   4 mph 65.7% 0.00 in 53 W/m2
14:34 74.2 °F 62.1 °F 29.84 in WNW 0.1 mph 4 mph 66.1% 0.00 in 54 W/m2
14:39 74.3 °F 61.8 °F 29.84 in West 0.2 mph 3 mph 65% 0.00 in 149 W/m2
14:44 74.5 °F 61.9 °F 29.84 in West 0.3 mph 3 mph 64.8% 0.00 in 199 W/m2
14:45 74.7 °F 61.7 °F 29.84 in Calm   3 mph 64% 0.00 in 163 W/m2
15:34 75.8 °F 63.1 °F 29.81 in SSW 0.1 mph 2 mph 64.6% 0.00 in 461 W/m2
15:39 76.1 °F 63.2 °F 29.82 in SSW 0.1 mph 3 mph 64.4% 0.00 in 425 W/m2
15:44 76 °F 62.5 °F 29.81 in Calm   3 mph 62.8% 0.00 in 155 W/m2
15:49 75.9 °F 62.9 °F 29.81 in SSW 0.1 mph 3 mph 64.1% 0.00 in 606 W/m2
15:54 76 °F 63.6 °F 29.81 in SW 0.2 mph 6 mph 65.4% 0.00 in 589 W/m2
15:59 76.3 °F 63.6 °F 29.81 in WSW 0.4 mph 6 mph 64.8% 0.00 in 54 W/m2
16:00 76.4 °F 63.3 °F 29.81 in Calm   6 mph 64% 0.00 in 53 W/m2
17:30 74 °F 64 °F 29.81 in Calm   2 mph 71% 0.00 in 35 W/m2
18:00 72.5 °F 63.4 °F 29.80 in Calm   2 mph 73% 0.00 in 33 W/m2
19:30 69.5 °F 62.3 °F 29.79 in Calm     78% 0.00 in 0 W/m2
Hartford County Weather
Compliments of Weather Underground - 2 mb